+07,Max TemperatureF,Mean TemperatureF,Min TemperatureF,Max Dew PointF,MeanDew PointF,Min DewpointF,Max Humidity, Mean Humidity, Min Humidity, Max Sea Level PressureIn, Mean Sea Level PressureIn, Min Sea Level PressureIn, Max VisibilityMiles, Mean VisibilityMiles, Min VisibilityMiles, Max Wind SpeedMPH, Mean Wind SpeedMPH, Max Gust SpeedMPH,PrecipitationIn, CloudCover, Events, WindDirDegrees
2011-12-1,77,70,62,64,63,61,94,79,61,30.04,29.96,29.89,6,6,3,12,4,,0.00,4,,40
2011-12-2,78,70,62,63,61,61,94,74,54,30.04,29.94,29.86,6,6,3,9,3,,0.00,5,,33
2011-12-3,77,70,64,64,62,61,100,78,57,29.95,29.90,29.83,6,6,6,6,3,,0.00,5,,22
2011-12-4,78,71,64,66,63,59,94,78,54,30.01,29.92,29.86,6,5,1,5,1,,0.00,6,,163
2011-12-5,80,73,66,66,61,57,94,68,45,30.04,29.95,29.86,6,6,3,6,2,,0.00,4,,115
2011-12-6,82,71,60,63,61,55,94,70,39,30.04,29.96,29.89,6,5,2,6,3,,0.00,3,,25
2011-12-7,84,72,60,64,61,59,94,69,42,30.06,29.97,29.89,6,5,1,6,2,,0.00,2,,28
2011-12-8,82,70,59,66,62,59,100,73,45,30.04,29.96,29.89,6,5,1,7,2,,0.00,4,,79
2011-12-9,84,75,66,68,65,64,94,73,51,30.04,29.95,29.89,6,6,5,6,2,,0.00,3,,285
2011-12-10,78,73,68,66,64,61,94,73,61,30.06,29.99,29.92,6,6,6,9,4,,0.00,6,,55
2011-12-11,68,65,62,64,58,57,88,78,73,30.12,30.05,29.98,6,6,4,8,5,,0.00,7,,21
2011-12-12,71,66,60,59,57,55,88,74,60,30.12,30.03,29.98,6,6,6,7,3,,0.00,6,,5
2011-12-13,77,67,57,63,59,55,94,75,50,30.09,30.00,29.92,6,5,0,6,3,,0.00,2,Fog,248
2011-12-14,80,68,57,63,58,54,94,72,42,30.09,30.00,29.95,6,4,0,6,1,,0.00,2,Fog,198
2011-12-15,80,68,55,63,56,50,100,69,34,30.06,30.00,29.92,6,4,0,5,1,,0.00,1,Fog,20
2011-12-16,78,66,55,61,58,54,94,71,47,30.12,30.02,29.95,6,6,3,8,2,,0.00,2,,27
2011-12-17,77,70,62,61,60,59,94,72,54,30.12,30.04,29.98,6,6,5,9,5,,0.00,5,,26
2011-12-18,77,68,59,61,58,55,100,73,47,30.15,30.06,30.01,6,5,1,9,2,,0.00,3,,20
2011-12-19,77,65,53,59,53,48,100,66,36,30.12,30.01,29.95,6,6,6,7,4,,0.00,1,,357
2011-12-20,77,64,51,57,53,50,94,62,39,30.10,30.00,29.92,6,4,1,8,2,,0.00,1,,35
2011-12-21,77,65,53,57,55,52,100,65,41,30.09,30.00,29.92,6,4,1,7,3,,0.00,2,,43
2011-12-22,80,66,51,59,55,50,94,71,37,30.09,29.99,29.89,3,1,0,8,3,,0.00,6,Fog,23
2011-12-23,78,66,53,61,59,52,94,69,51,30.04,29.95,29.86,6,6,3,6,3,,0.00,2,,27
2011-12-24,77,70,62,63,60,59,94,72,54,30.06,29.98,29.92,6,6,4,9,4,,0.00,4,,19
2011-12-25,71,66,60,57,55,52,88,68,50,30.12,30.07,30.01,6,6,5,9,5,,0.00,6,,13
2011-12-26,69,62,55,57,52,48,94,68,46,30.15,30.08,30.04,6,5,3,7,3,,0.00,5,,342
2011-12-27,75,67,59,57,53,50,94,62,41,30.12,30.05,29.83,6,4,2,7,3,,0.00,5,,17
2011-12-28,75,68,62,59,56,54,88,66,47,30.15,30.08,30.01,5,4,2,10,4,,0.00,7,,11
2011-12-29,80,72,64,61,59,57,83,66,45,30.12,30.04,29.95,6,6,5,6,3,,0.00,4,,20
2011-12-30,82,70,57,63,60,55,94,70,45,30.12,30.04,29.98,6,5,2,7,2,,0.00,1,,24
2011-12-31,84,73,62,64,62,59,94,66,42,30.12,30.04,29.98,6,6,3,5,2,,0.00,4,,162